x

New Dungeness - 17 Nm Ne Of Port Angeles, Wa (46088) Wave Buoy

8:20pm - Wed 21st Feb 2018 All times are PST. -8 hours from GMT.

  • Sig Wave height 2.0ft
  • Swell Direction
  • Peak Period 3s
  • Average Period 4s
  • Wind
    16mph, 18mph gusts
  • Sea Temp 45°f
  • Air Temp 33°f
  • Sea Pressure 1022mb
  • New Dungeness - 17 Nm Ne Of Port Angeles, Wa
  • New Dungeness - 17 Nm Ne Of Port Angeles, Wa

More Historic Weather Station data

Upgrade to MSW Pro to gain access to the past 30 days of data for over 8000 Wavebouys and Weather Stations around the globe.

Join

Comparision Forecast

View Surf forecast
   
Wed 02/21 8:20pm 2ft 3s 4s 16 18 mph 1022mb 45f 33f
7:50pm 2ft 4s 3s 16 18 mph 1022.1mb 45f 33f
7:20pm 1.6ft 3s 3s 16 18 mph 1022.2mb 45f 33f
6:50pm 1.6ft 3s 3s 16 20 mph 1022.4mb 45f 33f
6:20pm 1.3ft 3s 3s 16 20 mph 1022.6mb 45f 33f
5:50pm 1.3ft 3s 3s 16 20 mph 1022.7mb 45f 32f
5:20pm 1.3ft 3s 3s 16 20 mph 1022.9mb 45f 31f
4:50pm 1ft 8s 3s 16 18 mph 1023.2mb 45f 31f
4:20pm 0.7ft  -  3s 13 16 mph 1023.5mb 45f 31f
3:50pm 0.7ft  -  4s 13 16 mph 1024mb 45f 31f
3:20pm 0.7ft  -  3s 11 16 mph 1024.3mb 45f 30f
2:50pm 0.7ft  -  3s 9 11 mph 1024.8mb 45f 31f
2:20pm 0.7ft  -  4s 4 4 mph 1025.2mb 45f 31f
1:50pm 0.7ft  -  3s 4 7 mph 1025.4mb 46f 33f
1:20pm 0.7ft  -  3s 7 11 mph 1025.5mb 46f 33f
12:50pm 0.7ft  -  3s 7 13 mph 1025.8mb 46f 33f
12:20pm  -   -   -  4 9 mph 1026.1mb 45f 34f
11:50am 0.7ft  -  3s 7 16 mph 1026.4mb 45f 35f
11:20am 0.7ft  -  3s 4 7 mph 1026.7mb 45f 35f
10:50am 0.3ft  -  3s 2 4 mph 1026.4mb 45f 35f
10:20am 0.7ft  -  4s  -  4 mph 1026.4mb 45f 35f
9:50am 0.7ft  -  3s 2 4 mph 1026.2mb 45f 35f
9:20am 0.7ft  -  3s 2 2 mph 1026.1mb 45f 34f
8:50am 0.3ft  -  3s 4 7 mph 1026.7mb 45f 34f
8:20am 0.3ft  -  3s 2 4 mph 1027mb 45f 35f
7:50am 0.7ft  -  3s  -  2 mph 1026.9mb 45f 34f
7:20am 0.7ft  -  3s 2 4 mph 1026.6mb 45f 34f
6:50am 0.7ft  -  3s 2 4 mph 1026.9mb 45f 34f
6:20am 0.7ft  -  4s 2 4 mph 1027.3mb 45f 34f
5:50am 0.7ft  -  3s  -  2 mph 1027mb 45f 34f
5:20am 0.7ft  -  3s 2 4 mph 1027.1mb 45f 34f
4:50am 1ft 3s 3s 4 9 mph 1027mb 45f 33f
4:20am 1ft 3s 3s 7 11 mph 1027.3mb 45f 33f
3:50am 1.3ft 3s 3s 11 13 mph 1027.4mb 45f 33f
3:20am 1.3ft 3s 3s 13 16 mph 1027.3mb 45f 33f
2:50am 1.6ft 3s 3s 16 18 mph 1027.1mb 45f 33f
2:20am 2ft 3s 3s 18 22 mph 1027.4mb 45f 34f
1:50am 2ft 3s 3s 20 25 mph 1027.5mb 45f 33f
1:20am 2ft 3s 3s 18 20 mph 1028mb 45f 34f
12:50am 2ft 3s 3s 13 16 mph 1028mb 45f 34f
12:20am 1.6ft 3s 3s 16 20 mph 1027.7mb 46f 34f
Tue 02/20 11:50pm 2ft 3s 3s 20 25 mph 1027.2mb 46f 35f
11:20pm 2ft 3s 3s 20 25 mph 1027.1mb 46f 35f
10:50pm 2ft 3s 3s 20 27 mph 1027mb 46f 36f
10:20pm  -   -   -  20 25 mph 1026.7mb 46f 36f
9:50pm 1.6ft 3s 3s 22 27 mph 1026.1mb 46f 36f
9:20pm 1.3ft 3s 3s 22 27 mph 1025.8mb 46f 36f
8:50pm 1.3ft 3s 3s 20 22 mph 1025.6mb 46f 37f
8:20pm 1ft 3s 3s 16 20 mph 1025.4mb 46f 37f
7:50pm 1ft 3s 3s 16 20 mph 1025.3mb 46f 37f
7:20pm 0.7ft  -  3s 16 20 mph 1025.2mb 45f 37f
6:50pm 0.7ft  -  3s 9 13 mph 1025mb 45f 37f
6:20pm 0.7ft  -  3s 11 16 mph 1024.7mb 45f 37f
5:50pm 0.3ft  -  3s 9 13 mph 1024.4mb 45f 37f
5:20pm 0.7ft  -  3s 9 13 mph 1024.2mb 45f 37f
4:50pm 0.3ft  -  3s 7 11 mph 1024mb 45f 37f
4:20pm 0.3ft  -  3s 9 13 mph 1023.8mb 46f 37f
3:50pm  -   -   -  9 13 mph 1023.6mb 46f 36f
3:20pm 0.7ft  -  3s 9 11 mph 1023.4mb 46f 35f
2:50pm 0.7ft  -  3s 11 13 mph 1023.1mb 46f 35f
2:20pm 0.7ft  -  3s 11 13 mph 1023mb 46f 35f
1:50pm 0.7ft  -  3s 9 13 mph 1023mb 46f 35f
1:20pm 0.7ft  -  3s 9 11 mph 1023mb 46f 35f
12:50pm 0.7ft  -  3s 7 11 mph 1023mb 46f 35f
12:20pm 1ft 2s 3s 9 13 mph 1023mb 45f 35f
11:50am 1.3ft 3s 3s 9 13 mph 1023.1mb 45f 34f
11:20am 1.3ft 3s 3s 11 16 mph 1022.9mb 45f 34f
10:50am 1.3ft 3s 3s 11 16 mph 1022.8mb 46f 34f
10:20am 1.3ft 3s 3s 11 16 mph 1022.7mb 46f 34f
9:50am 2ft 3s 3s 13 16 mph 1022.5mb 45f 34f
9:20am 1.6ft 4s 3s 11 16 mph 1022.2mb 45f 34f
8:50am 2ft 4s 3s 11 16 mph 1021.8mb 45f 33f
8:20am 2.5ft 4s 4s 13 18 mph 1021.6mb 45f 33f
7:50am 2.5ft 4s 4s 13 18 mph 1021.5mb 45f 34f
7:20am 2.5ft 4s 4s 16 20 mph 1021.4mb 45f 34f
6:50am 2ft 4s 4s 16 20 mph 1021.4mb 45f 34f
6:20am 1.6ft 4s 4s 16 20 mph 1021.5mb 45f 34f
5:50am 1.6ft 4s 4s 16 20 mph 1021.5mb 46f 34f
5:20am 1.3ft 4s 3s 18 22 mph 1021.4mb 45f 34f
4:50am 1.3ft 3s 3s 16 20 mph 1021.7mb 46f 35f
4:20am 1ft 3s 3s 16 18 mph 1021.9mb 45f 35f
3:50am 1.3ft 3s 3s 11 16 mph 1022mb 45f 35f
3:20am  -   -   -  13 18 mph 1021.9mb 45f 35f
2:50am 1.3ft 3s 3s 16 20 mph 1022.1mb 45f 35f
2:20am 1.3ft 3s 3s 13 16 mph 1022.5mb 45f 35f
1:50am 1.3ft 3s 3s 13 16 mph 1022.6mb 45f 35f
1:20am 1ft 3s 3s 13 16 mph 1022.6mb 45f 35f
12:50am 1ft 10s 3s 13 18 mph 1022.6mb 45f 35f
12:20am 0.7ft  -  3s 11 16 mph 1022.8mb 45f 35f
Mon 02/19 11:50pm 0.7ft  -  3s 11 16 mph 1022.9mb 45f 35f
11:20pm 0.3ft  -  4s 9 11 mph 1023mb 45f 35f
10:50pm 0.3ft  -  5s 9 13 mph 1022.9mb 45f 35f
10:20pm 0.3ft  -  5s 9 11 mph 1022.9mb 46f 35f
9:50pm 0.3ft  -  5s 4 9 mph 1023mb 46f 35f
8:50pm 0.3ft  -  5s  -  4 mph 1023.4mb 46f 35f
8:20pm 0.3ft  -  4s 2 4 mph 1023.3mb 46f 35f
7:50pm 0.3ft  -  4s  -  4 mph 1023.2mb 46f 35f
7:20pm 0.3ft  -  4s  -  2 mph 1023.3mb 46f 35f
6:50pm 0.3ft  -  4s 2 4 mph 1023.1mb 46f 35f
6:20pm 0.3ft  -  4s 4 7 mph 1022.9mb 46f 35f
5:50pm 0.3ft  -  4s 2 4 mph 1022.9mb 46f 35f
5:20pm 0.3ft  -  4s 4 7 mph 1023mb 46f 35f
4:50pm 0.3ft  -  4s 4 9 mph 1023.1mb 46f 35f
4:20pm 0.3ft  -  4s 4 7 mph 1023.5mb 46f 35f
3:50pm  -   -   -  2 4 mph 1023.8mb 46f 35f
3:20pm 0.7ft  -  4s 4 7 mph 1024.1mb 46f 35f
2:50pm 0.7ft  -  3s  -  0 mph 1024.1mb 46f 36f
2:20pm 0.7ft  -  3s 2 4 mph 1024.3mb 46f 34f
1:50pm 0.7ft  -  3s  -  4 mph 1024.6mb 46f 34f
12:50pm 0.7ft  -  3s  -  4 mph 1024.9mb 46f 33f
12:20pm 1ft 2s 3s 7 9 mph 1025mb 45f 33f
11:50am 1ft 2s 3s 9 13 mph 1025.1mb 45f 33f
11:20am 1ft 3s 3s 9 16 mph 1025.2mb 45f 33f
10:50am 1.3ft 3s 3s 11 13 mph 1025.2mb 45f 32f
10:20am 1.3ft 3s 3s 13 16 mph 1025mb 45f 33f
9:50am  -   -   -  13 16 mph 1024.7mb 45f 32f
9:20am 1.6ft 3s 3s 13 16 mph 1024.5mb 45f 32f
8:50am 2ft 4s 3s 11 13 mph 1024.4mb 45f 32f
8:20am 2.5ft 4s 4s 9 13 mph 1024.3mb 45f 32f
7:50am 2.5ft 4s 4s 13 18 mph 1023.9mb 45f 32f
7:20am 2.5ft 5s 4s 13 18 mph 1023.6mb 45f 32f
6:50am 3ft 5s 4s 13 18 mph 1023.3mb 45f 31f
6:20am 3.5ft 5s 4s 16 25 mph 1023.1mb 45f 31f
5:50am 3ft 5s 4s 25 29 mph 1022.3mb 45f 31f
5:20am 3.5ft 5s 4s 25 29 mph 1021.7mb 45f 31f
4:50am 3.5ft 5s 4s 22 29 mph 1021.5mb 46f 32f
4:20am 3.5ft 5s 4s 25 31 mph 1020.8mb 46f 31f
3:50am 3.5ft 5s 4s 27 34 mph 1020.7mb 46f 32f
3:20am 4ft 5s 4s 29 36 mph 1020.5mb 45f 32f
2:50am 3.5ft 4s 4s 29 36 mph 1020mb 46f 32f
2:20am 4.5ft 4s 4s 27 31 mph 1019.8mb 46f 32f
1:50am 3.5ft 4s 4s 29 34 mph 1019mb 46f 32f
12:50am 3.5ft 4s 4s 25 31 mph 1018.8mb 46f 32f
12:20am 3.5ft 4s 4s 27 31 mph 1018.3mb 46f 33f
Sun 02/18 11:50pm 3.5ft 4s 4s 29 34 mph 1017.9mb 46f 32f
11:20pm 3.5ft 4s 4s 29 38 mph 1017.5mb 46f 32f
10:50pm 4ft 4s 4s 29 36 mph 1017.1mb 46f 32f
10:20pm 4.5ft 4s 4s 31 38 mph 1016.7mb 46f 33f
9:50pm 4.5ft 4s 4s 31 38 mph 1016.3mb 46f 33f
9:20pm 4ft 4s 4s 31 36 mph 1016.1mb 46f 33f
8:50pm 4ft 4s 4s 31 38 mph 1015.7mb 46f 33f
8:20pm 4ft 4s 4s 31 40 mph 1015.5mb 46f 33f
7:50pm 4.5ft 5s 4s 27 38 mph 1015.4mb 46f 33f
7:20pm 4.5ft 4s 4s 29 36 mph 1015.2mb 46f 33f
6:50pm 4ft 4s 4s 27 34 mph 1015.1mb 46f 34f
6:20pm 3.5ft 4s 4s 27 31 mph 1014.7mb 46f 34f
5:50pm 4ft 5s 4s 25 31 mph 1014.4mb 46f 35f
5:20pm 4ft 5s 4s 27 34 mph 1013.7mb 46f 35f
4:50pm 4.5ft 5s 4s 27 31 mph 1013.2mb 46f 35f
4:20pm 4.5ft 5s 4s 27 31 mph 1012.7mb 46f 35f
3:50pm 5ft 5s 4s 27 34 mph 1012.3mb 46f 35f
3:20pm 4.5ft 5s 4s 29 40 mph 1011.9mb 46f 35f
2:50pm 5ft 5s 4s 31 38 mph 1011.2mb 46f 35f
2:20pm 5ft 5s 4s 31 40 mph 1010.8mb 46f 35f
1:50pm 5ft 5s 4s 34 40 mph 1010.5mb 46f 35f
1:20pm 5ft 4s 4s 34 43 mph 1010.3mb 46f 34f
12:50pm 5ft 5s 4s 36 49 mph 1009.6mb 46f 35f
12:20pm 5ft 5s 4s 36 45 mph 1009.3mb 46f 35f
11:50am 5ft 4s 4s 36 45 mph 1009.2mb 46f 34f
11:20am 5.5ft 5s 4s 34 43 mph 1008.7mb 46f 35f
10:50am 5ft 5s 4s 34 43 mph 1007.9mb 46f 35f
10:20am 4.5ft 4s 4s 36 43 mph 1007.3mb 46f 34f
9:50am 4.5ft 4s 4s 34 40 mph 1006.9mb 46f 34f
9:20am 3.5ft 4s 4s 27 34 mph 1006.5mb 46f 35f
8:50am 3.5ft 3s 3s 25 29 mph 1005.9mb 46f 35f
8:20am 3ft 4s 4s 25 29 mph 1005.4mb 46f 35f
7:50am 2.5ft 4s 4s 27 31 mph 1004.6mb 46f 36f
7:20am 2.5ft 4s 4s 22 27 mph 1003.9mb 46f 36f
6:50am 2ft 3s 4s 22 27 mph 1003.4mb 46f 35f
6:20am 1.3ft 8s 4s 22 27 mph 1003.2mb 46f 36f
5:50am 1.3ft 8s 4s 9 18 mph 1003.1mb 46f 39f
5:20am 1.6ft 6s 4s 9 11 mph 1002.8mb 46f 38f